X  Close Metar Aviation Weather Data     CYOO Oshawa Executive Airport
Temperature
-1°C Temperature
-2°C Dewpoint
93% Humidity



Wind
5 KM/H
3 MPH
1 M/S
3 KTS



20°
NNE
Current Conditions

Overcast Overcast
Pressure 1002.03 (hPa) - 29.59 (inHg)
Visibility 9 (mile) - 14.5 (km)
Airport
Airport-code CYOO

Location: Oshawa Executive Airport
Distance: 3 (km)

Metar:
CYOO 230300Z AUTO 02003KT 9SM OVC240 M01/M02 A2959 RMK SLP026

Time: 22-02-2024 22:00 EST